createdAt,value
2022-08-12T00:02:02.965Z,5.10
2022-08-12T00:04:53.035Z,7.97
2022-08-12T00:07:39.178Z,9.03
2022-08-12T00:10:26.805Z,6.10
2022-08-12T00:13:12.854Z,11.47
2022-08-12T00:16:02.523Z,7.17
2022-08-12T00:18:48.225Z,7.90
2022-08-12T00:21:36.885Z,9.10
2022-08-12T00:24:23.766Z,13.87
2022-08-12T00:27:11.346Z,14.83
2022-08-12T00:29:57.711Z,7.20
2022-08-12T00:32:54.911Z,8.37
2022-08-12T00:35:42.319Z,6.30
2022-08-12T00:38:27.999Z,7.20
2022-08-12T00:41:14.083Z,6.23
2022-08-12T00:43:44.981Z,7.47
2022-08-12T00:46:30.813Z,5.47
2022-08-12T00:48:59.126Z,7.83
2022-08-12T00:51:47.661Z,11.17
2022-08-12T00:54:16.814Z,7.20
2022-08-12T00:56:45.081Z,8.73
2022-08-12T00:59:14.962Z,9.67
2022-08-12T01:02:10.541Z,6.20
2022-08-12T01:04:53.591Z,9.07
2022-08-12T01:07:45.198Z,5.80
2022-08-12T01:10:32.594Z,9.97
2022-08-12T01:13:19.109Z,10.27
2022-08-12T01:16:00.644Z,8.03
2022-08-12T01:18:32.555Z,9.47
2022-08-12T01:21:12.038Z,11.43
2022-08-12T01:24:29.704Z,6.23
2022-08-12T01:27:08.288Z,7.37
2022-08-12T01:29:43.853Z,7.33
2022-08-12T01:32:14.907Z,6.60
2022-08-12T01:34:47.583Z,6.27
2022-08-12T01:37:20.267Z,14.67
2022-08-12T01:40:35.378Z,6.90
2022-08-12T01:42:48.319Z,10.10
2022-08-12T01:45:18.483Z,6.00
2022-08-12T01:48:05.688Z,8.43
2022-08-12T01:50:48.326Z,6.70
2022-08-12T01:53:20.892Z,6.20
2022-08-12T01:55:49.233Z,10.73
2022-08-12T01:58:29.857Z,7.70
2022-08-12T02:01:03.666Z,8.40
2022-08-12T02:04:19.492Z,6.80
2022-08-12T02:07:15.435Z,9.77
2022-08-12T02:10:49.320Z,6.83
2022-08-12T02:13:09.920Z,7.10
2022-08-12T02:15:49.878Z,7.33
2022-08-12T02:18:26.918Z,7.00
2022-08-12T02:21:02.374Z,7.50
2022-08-12T02:23:31.846Z,7.20
2022-08-12T02:26:04.246Z,11.33
2022-08-12T02:28:33.028Z,6.33
2022-08-12T02:31:06.394Z,11.43
2022-08-12T02:33:35.174Z,6.20
2022-08-12T02:36:05.140Z,7.40
2022-08-12T02:38:33.839Z,9.00
2022-08-12T02:41:04.868Z,11.50
2022-08-12T02:43:38.822Z,9.87
2022-08-12T02:46:14.714Z,8.17
2022-08-12T02:48:47.625Z,8.17
2022-08-12T02:51:20.673Z,6.30
2022-08-12T02:54:02.996Z,12.57
2022-08-12T02:56:37.622Z,10.93
2022-08-12T02:59:06.709Z,17.13
2022-08-12T03:01:47.744Z,7.30
2022-08-12T03:04:24.325Z,7.40
2022-08-12T03:07:00.613Z,7.47
2022-08-12T03:09:51.485Z,7.20
2022-08-12T03:12:24.485Z,6.63
2022-08-12T03:14:53.666Z,9.30
2022-08-12T03:17:30.298Z,9.03
2022-08-12T03:20:09.250Z,9.37
2022-08-12T03:22:40.572Z,7.47
2022-08-12T03:25:17.148Z,12.53
2022-08-12T03:27:49.676Z,6.93
2022-08-12T03:30:18.992Z,6.00
2022-08-12T03:32:50.715Z,9.20
2022-08-12T03:35:41.477Z,8.83
2022-08-12T03:38:15.974Z,9.80
2022-08-12T03:41:25.164Z,7.00
2022-08-12T03:44:17.249Z,12.57
2022-08-12T03:47:07.451Z,8.83
2022-08-12T03:49:54.703Z,9.20
2022-08-12T03:52:40.522Z,8.03
2022-08-12T03:55:27.114Z,7.50
2022-08-12T03:58:12.804Z,7.23
2022-08-12T04:00:40.803Z,7.60
2022-08-12T04:03:30.495Z,11.60
2022-08-12T04:05:59.956Z,8.87
2022-08-12T04:08:28.735Z,7.03
2022-08-12T04:11:19.880Z,9.13
2022-08-12T04:13:48.620Z,7.87
2022-08-12T04:16:18.093Z,8.60
2022-08-12T04:18:46.420Z,9.07
2022-08-12T04:21:15.649Z,9.40
2022-08-12T04:23:48.264Z,7.23
2022-08-12T04:26:17.188Z,9.33
2022-08-12T04:28:45.947Z,7.03
2022-08-12T04:31:14.152Z,6.13
2022-08-12T04:33:43.761Z,8.03
2022-08-12T04:36:11.832Z,10.83
2022-08-12T04:38:41.546Z,9.83
2022-08-12T04:41:10.821Z,7.40
2022-08-12T04:44:00.702Z,8.00
2022-08-12T04:46:30.723Z,7.20
2022-08-12T04:49:03.698Z,8.73
2022-08-12T04:51:31.942Z,8.30
2022-08-12T04:54:02.664Z,7.93
2022-08-12T04:56:35.388Z,6.90
2022-08-12T04:59:04.279Z,9.27
2022-08-12T05:01:32.819Z,6.20
2022-08-12T05:04:02.692Z,6.33
2022-08-12T05:06:30.601Z,5.83
2022-08-12T05:09:00.490Z,6.57
2022-08-12T05:11:29.875Z,9.37
2022-08-12T05:14:01.715Z,9.67
2022-08-12T05:16:32.593Z,7.33
2022-08-12T05:19:02.624Z,10.50
2022-08-12T05:21:30.764Z,6.57
2022-08-12T05:23:58.708Z,6.70
2022-08-12T05:26:27.054Z,8.80
2022-08-12T05:28:56.459Z,7.67
2022-08-12T05:31:40.371Z,9.50
2022-08-12T05:34:14.786Z,8.30
2022-08-12T05:36:44.115Z,7.10
2022-08-12T05:39:12.034Z,5.70
2022-08-12T05:41:40.206Z,6.50
2022-08-12T05:44:12.637Z,6.53
2022-08-12T05:46:41.190Z,6.40
2022-08-12T05:49:09.538Z,6.10
2022-08-12T05:51:40.108Z,8.20
2022-08-12T05:54:10.822Z,7.47
2022-08-12T05:56:40.080Z,6.27
2022-08-12T05:59:11.015Z,7.10
2022-08-12T06:02:11.619Z,6.77
2022-08-12T06:04:27.909Z,7.77
2022-08-12T06:06:55.837Z,6.63
2022-08-12T06:09:25.615Z,8.07
2022-08-12T06:12:04.782Z,7.77
2022-08-12T06:14:37.875Z,5.63
2022-08-12T06:17:08.976Z,7.50
2022-08-12T06:20:27.001Z,7.80
2022-08-12T06:22:26.656Z,11.07
2022-08-12T06:24:54.578Z,6.30
2022-08-12T06:27:22.605Z,7.80
2022-08-12T06:30:08.974Z,6.87
2022-08-12T06:32:52.004Z,5.90
2022-08-12T06:35:46.800Z,5.47
2022-08-12T06:38:17.496Z,5.10
2022-08-12T06:41:03.521Z,6.53
2022-08-12T06:44:04.287Z,8.83
2022-08-12T06:46:22.035Z,8.90
2022-08-12T06:48:55.088Z,5.70
2022-08-12T06:51:23.097Z,9.20
2022-08-12T06:53:51.095Z,8.30
2022-08-12T06:56:18.980Z,7.03
2022-08-12T06:58:46.869Z,11.07
2022-08-12T07:01:15.076Z,12.20
2022-08-12T07:03:44.428Z,6.30
2022-08-12T07:06:13.686Z,7.37
2022-08-12T07:08:43.979Z,5.50
2022-08-12T07:11:13.958Z,5.00
2022-08-12T07:14:02.533Z,6.50
2022-08-12T07:16:47.308Z,6.60
2022-08-12T07:19:16.808Z,5.60
2022-08-12T07:22:02.347Z,5.97
2022-08-12T07:24:30.877Z,6.73
2022-08-12T07:26:59.224Z,5.30
2022-08-12T07:29:58.182Z,8.40
2022-08-12T07:32:16.345Z,7.20
2022-08-12T07:34:47.313Z,6.13
2022-08-12T07:37:15.820Z,6.90
2022-08-12T07:39:49.913Z,6.37
2022-08-12T07:42:19.295Z,6.47
2022-08-12T07:44:47.358Z,8.13
2022-08-12T07:47:19.692Z,7.83
2022-08-12T07:50:03.406Z,8.10
2022-08-12T07:52:32.181Z,8.57
2022-08-12T07:55:01.366Z,6.70
2022-08-12T07:57:29.351Z,7.07
2022-08-12T07:59:57.254Z,9.67
2022-08-12T08:02:27.053Z,5.93
2022-08-12T08:05:00.507Z,7.80
2022-08-12T08:07:30.825Z,5.80
2022-08-12T08:10:00.627Z,7.00
2022-08-12T08:12:48.101Z,10.97
2022-08-12T08:15:17.105Z,5.77
2022-08-12T08:17:57.740Z,6.23
2022-08-12T08:20:29.329Z,7.30
2022-08-12T08:22:59.076Z,6.40
2022-08-12T08:25:37.102Z,10.37
2022-08-12T08:28:09.226Z,6.30
2022-08-12T08:30:39.704Z,5.03
2022-08-12T08:33:22.856Z,5.30
2022-08-12T08:36:00.720Z,7.10
2022-08-12T08:38:33.106Z,7.40
2022-08-12T08:42:19.113Z,7.27
2022-08-12T08:44:11.321Z,6.63
2022-08-12T08:46:39.565Z,5.47
2022-08-12T08:49:08.557Z,15.07
2022-08-12T08:51:38.904Z,4.80
2022-08-12T08:54:08.506Z,8.10
2022-08-12T08:56:43.824Z,4.63
2022-08-12T08:59:12.292Z,5.00
2022-08-12T09:01:40.685Z,5.37
2022-08-12T09:05:09.237Z,5.70
2022-08-12T09:07:17.266Z,6.20
2022-08-12T09:10:02.226Z,5.27
2022-08-12T09:12:51.652Z,7.30
2022-08-12T09:18:12.766Z,4.97
2022-08-12T09:20:43.151Z,10.00
2022-08-12T09:24:00.123Z,7.83
2022-08-12T09:28:52.786Z,4.93
2022-08-12T09:32:03.887Z,5.20
2022-08-12T09:34:25.312Z,4.30
2022-08-12T09:37:01.656Z,9.47
2022-08-12T09:40:01.828Z,4.73
2022-08-12T09:42:43.328Z,6.03
2022-08-12T09:45:23.445Z,4.73
2022-08-12T09:47:59.391Z,8.57
2022-08-12T09:50:28.401Z,6.77
2022-08-12T09:53:14.992Z,9.70
2022-08-12T09:56:01.269Z,6.33
2022-08-12T09:58:57.457Z,8.40
2022-08-12T10:01:25.356Z,6.67
2022-08-12T10:04:04.908Z,5.13
2022-08-12T10:06:36.646Z,5.60
2022-08-12T10:09:21.675Z,7.67
2022-08-12T10:12:12.955Z,5.10
2022-08-12T10:14:50.545Z,4.87
2022-08-12T10:17:22.706Z,6.90
2022-08-12T10:19:52.579Z,4.73
2022-08-12T10:22:36.587Z,4.60
2022-08-12T10:26:18.414Z,5.77
2022-08-12T10:28:34.013Z,4.60
2022-08-12T10:31:05.182Z,7.00
2022-08-12T10:33:50.657Z,4.40
2022-08-12T10:36:36.357Z,4.60
2022-08-12T10:40:00.164Z,5.00
2022-08-12T10:42:45.917Z,4.43
2022-08-12T10:45:14.303Z,4.60
2022-08-12T10:48:07.697Z,8.37
2022-08-12T10:51:01.680Z,6.10
2022-08-12T10:53:45.129Z,4.43
2022-08-12T10:56:15.466Z,8.50
2022-08-12T10:58:46.166Z,5.40
2022-08-12T11:01:50.331Z,5.17
2022-08-12T11:04:23.879Z,4.83
2022-08-12T11:07:06.338Z,4.30
2022-08-12T11:09:56.457Z,6.47
2022-08-12T11:12:56.299Z,7.10
2022-08-12T11:15:24.299Z,6.70
2022-08-12T11:18:17.947Z,4.80
2022-08-12T11:20:48.259Z,4.40
2022-08-12T11:23:25.487Z,4.80
2022-08-12T11:26:06.519Z,5.13
2022-08-12T11:28:37.035Z,5.37
2022-08-12T11:31:09.847Z,5.50
2022-08-12T11:34:06.771Z,4.53
2022-08-12T11:36:40.682Z,5.30
2022-08-12T11:39:12.367Z,4.87
2022-08-12T11:41:40.500Z,7.30
2022-08-12T11:44:35.608Z,4.00
2022-08-12T11:46:59.068Z,5.53
2022-08-12T11:49:31.993Z,4.77
2022-08-12T11:52:02.248Z,4.80
2022-08-12T11:54:30.962Z,6.00
2022-08-12T11:57:01.894Z,6.80
2022-08-12T12:02:21.434Z,4.10
2022-08-12T12:04:52.772Z,6.53
2022-08-12T12:08:36.579Z,5.50
2022-08-12T12:10:12.826Z,6.50
2022-08-12T12:12:41.442Z,4.60
2022-08-12T12:15:25.429Z,7.63
2022-08-12T12:18:05.413Z,5.27
2022-08-12T12:20:36.259Z,4.43
2022-08-12T12:23:04.265Z,4.93
2022-08-12T12:26:07.210Z,6.03
2022-08-12T12:28:37.698Z,7.10
2022-08-12T12:31:15.255Z,5.03
2022-08-12T12:33:58.298Z,5.20
2022-08-12T12:36:30.684Z,14.23
2022-08-12T12:39:00.296Z,5.90
2022-08-12T12:42:45.327Z,5.43
2022-08-12T12:44:25.493Z,9.80
2022-08-12T12:46:58.480Z,6.40
2022-08-12T12:49:28.974Z,5.93
2022-08-12T12:52:19.727Z,4.87
2022-08-12T12:54:52.862Z,5.93
2022-08-12T12:57:21.609Z,4.53
2022-08-12T13:00:16.668Z,4.80
2022-08-12T13:02:53.876Z,5.80
2022-08-12T13:05:27.817Z,5.83
2022-08-12T13:08:01.034Z,6.20
2022-08-12T13:10:37.092Z,4.80
2022-08-12T13:14:07.878Z,5.03
2022-08-12T13:15:59.311Z,5.53
2022-08-12T13:18:31.470Z,7.10
2022-08-12T13:20:59.845Z,5.70
2022-08-12T13:23:36.316Z,4.00
2022-08-12T13:26:07.668Z,6.30
2022-08-12T13:28:46.452Z,4.83
2022-08-12T13:31:24.957Z,4.17
2022-08-12T13:34:28.637Z,7.20
2022-08-12T13:36:43.885Z,4.97
2022-08-12T13:39:16.325Z,6.83
2022-08-12T13:41:44.584Z,6.30
2022-08-12T13:44:12.983Z,7.13
2022-08-12T13:46:42.154Z,4.70
2022-08-12T13:49:20.443Z,5.50
2022-08-12T13:52:01.637Z,4.20
2022-08-12T13:54:30.997Z,4.50
2022-08-12T13:56:58.878Z,4.83
2022-08-12T13:59:28.632Z,6.27
2022-08-12T14:02:17.584Z,7.70
2022-08-12T14:04:45.701Z,4.40
2022-08-12T14:07:25.943Z,5.93
2022-08-12T14:10:16.057Z,7.00
2022-08-12T14:12:54.566Z,6.70
2022-08-12T14:15:36.499Z,7.03
2022-08-12T14:18:13.985Z,6.50
2022-08-12T14:20:47.629Z,5.23
2022-08-12T14:24:05.745Z,5.30
2022-08-12T14:26:12.006Z,5.90
2022-08-12T14:28:45.462Z,6.33
2022-08-12T14:31:31.554Z,6.00
2022-08-12T14:34:00.154Z,5.53
2022-08-12T14:36:34.207Z,3.87
2022-08-12T14:39:04.804Z,5.77
2022-08-12T14:41:37.252Z,4.10
2022-08-12T14:44:58.278Z,4.70
2022-08-12T14:47:07.575Z,4.97
2022-08-12T14:50:33.578Z,5.70
2022-08-12T14:52:56.473Z,4.30
2022-08-12T14:58:02.758Z,5.03
2022-08-12T15:00:52.158Z,7.90
2022-08-12T15:03:52.117Z,4.33
2022-08-12T15:06:38.964Z,4.77
2022-08-12T15:09:11.851Z,4.70
2022-08-12T15:11:54.355Z,4.63
2022-08-12T15:14:26.604Z,3.67
2022-08-12T15:16:55.826Z,3.90
2022-08-12T15:20:31.858Z,5.20
2022-08-12T15:22:37.169Z,4.67
2022-08-12T15:25:07.446Z,3.40
2022-08-12T15:28:04.392Z,3.73
2022-08-12T15:30:33.785Z,3.57
2022-08-12T15:33:12.192Z,3.43
2022-08-12T15:35:52.807Z,4.83
2022-08-12T15:38:25.016Z,3.87
2022-08-12T15:40:54.912Z,3.57
2022-08-12T15:44:16.051Z,4.27
2022-08-12T15:46:15.591Z,4.60
2022-08-12T15:48:46.420Z,4.17
2022-08-12T15:51:57.609Z,5.70
2022-08-12T15:54:30.985Z,4.83
2022-08-12T15:57:03.235Z,4.60
2022-08-12T15:59:32.699Z,3.60
2022-08-12T16:02:21.165Z,3.67
2022-08-12T16:04:50.464Z,4.10
2022-08-12T16:07:26.214Z,3.40
2022-08-12T16:10:05.586Z,3.60
2022-08-12T16:12:43.544Z,4.27
2022-08-12T16:15:26.187Z,3.47
2022-08-12T16:18:25.875Z,3.20
2022-08-12T16:20:47.231Z,4.93
2022-08-12T16:23:26.248Z,3.40
2022-08-12T16:26:05.712Z,3.77
2022-08-12T16:28:38.855Z,3.57
2022-08-12T16:31:09.783Z,3.50
2022-08-12T16:34:00.408Z,3.70
2022-08-12T16:36:29.991Z,4.27
2022-08-12T16:39:01.420Z,3.33
2022-08-12T16:41:39.761Z,4.70
2022-08-12T16:44:08.851Z,4.77
2022-08-12T16:46:37.957Z,3.63
2022-08-12T16:49:08.942Z,3.60
2022-08-12T16:51:47.023Z,4.47
2022-08-12T16:54:17.224Z,4.20
2022-08-12T16:56:55.507Z,3.50
2022-08-12T16:59:31.167Z,4.27
2022-08-12T17:02:31.583Z,4.20
2022-08-12T17:05:05.572Z,4.90
2022-08-12T17:07:43.434Z,4.50
2022-08-12T17:10:14.022Z,3.90
2022-08-12T17:12:46.608Z,4.67
2022-08-12T17:15:50.730Z,4.60
2022-08-12T17:18:39.285Z,10.13
2022-08-12T17:20:57.644Z,7.67
2022-08-12T17:23:47.966Z,7.47
2022-08-12T17:26:18.496Z,3.90
2022-08-12T17:28:52.624Z,4.77
2022-08-12T17:31:59.784Z,4.23
2022-08-12T17:34:30.398Z,7.87
2022-08-12T17:37:05.067Z,3.30
2022-08-12T17:40:15.599Z,4.47
2022-08-12T17:42:32.955Z,5.87
2022-08-12T17:45:17.130Z,3.40
2022-08-12T17:48:04.701Z,5.70
2022-08-12T17:50:36.927Z,3.87
2022-08-12T17:53:10.833Z,5.97
2022-08-12T17:55:47.404Z,4.40
2022-08-12T17:58:17.991Z,6.47
2022-08-12T18:00:50.502Z,3.97
2022-08-12T18:03:57.126Z,4.97
2022-08-12T18:06:13.958Z,4.43
2022-08-12T18:08:54.740Z,4.90
2022-08-12T18:12:05.863Z,5.00
2022-08-12T18:14:30.390Z,4.40
2022-08-12T18:17:01.637Z,3.53
2022-08-12T18:20:04.274Z,4.83
2022-08-12T18:22:22.165Z,3.80
2022-08-12T18:25:04.158Z,4.10
2022-08-12T18:27:45.680Z,3.93
2022-08-12T18:30:29.388Z,5.10
2022-08-12T18:33:03.713Z,8.10
2022-08-12T18:35:47.184Z,3.73
2022-08-12T18:38:22.363Z,5.60
2022-08-12T18:41:10.374Z,4.33
2022-08-12T18:43:59.452Z,4.13
2022-08-12T18:46:34.995Z,8.13
2022-08-12T18:49:17.929Z,4.60
2022-08-12T18:51:55.485Z,4.77
2022-08-12T18:54:32.305Z,5.13
2022-08-12T18:57:16.166Z,7.43
2022-08-12T19:00:02.163Z,5.60
2022-08-12T19:02:39.706Z,6.53
2022-08-12T19:05:10.813Z,7.33
2022-08-12T19:07:49.353Z,6.60
2022-08-12T19:10:29.360Z,5.50
2022-08-12T19:13:23.417Z,6.27
2022-08-12T19:15:54.313Z,6.53
2022-08-12T19:18:30.166Z,7.93
2022-08-12T19:21:00.342Z,4.03
2022-08-12T19:23:35.772Z,5.60
2022-08-12T19:26:03.808Z,4.23
2022-08-12T19:28:36.397Z,5.30
2022-08-12T19:31:55.603Z,3.90
2022-08-12T19:34:56.444Z,3.93
2022-08-12T19:37:22.975Z,5.20
2022-08-12T19:40:08.019Z,10.87
2022-08-12T19:42:44.921Z,4.37
2022-08-12T19:45:17.843Z,4.77
2022-08-12T19:47:46.609Z,4.30
2022-08-12T19:50:20.077Z,5.50
2022-08-12T19:52:51.270Z,4.70
2022-08-12T19:55:23.374Z,4.03
2022-08-12T19:58:01.734Z,5.03
2022-08-12T20:00:34.984Z,4.00
2022-08-12T20:03:07.577Z,5.23
2022-08-12T20:06:06.584Z,4.10
2022-08-12T20:08:33.201Z,4.37
2022-08-12T20:12:12.013Z,3.90
2022-08-12T20:14:01.414Z,4.20
2022-08-12T20:16:57.306Z,5.00
2022-08-12T20:19:53.013Z,7.47
2022-08-12T20:22:23.441Z,5.13
2022-08-12T20:24:55.374Z,3.90
2022-08-12T20:27:29.045Z,4.10
2022-08-12T20:30:14.003Z,7.10
2022-08-12T20:32:53.705Z,4.57
2022-08-12T20:35:24.764Z,7.10
2022-08-12T20:38:06.659Z,5.70
2022-08-12T20:40:38.017Z,4.17
2022-08-12T20:43:06.856Z,4.10
2022-08-12T20:45:50.906Z,4.67
2022-08-12T20:48:25.519Z,5.23
2022-08-12T20:50:56.735Z,6.93
2022-08-12T20:53:26.604Z,4.57
2022-08-12T20:56:01.413Z,6.03
2022-08-12T20:58:29.600Z,4.67
2022-08-12T21:01:00.070Z,4.30
2022-08-12T21:03:52.750Z,5.30
2022-08-12T21:06:43.685Z,6.73
2022-08-12T21:09:11.628Z,5.70
2022-08-12T21:11:39.526Z,8.43
2022-08-12T21:14:10.520Z,4.00
2022-08-12T21:16:39.194Z,6.23
2022-08-12T21:19:11.911Z,4.57
2022-08-12T21:21:53.767Z,5.70
2022-08-12T21:24:32.313Z,8.93
2022-08-12T21:27:00.832Z,5.03
2022-08-12T21:29:40.198Z,6.13
2022-08-12T21:32:46.825Z,6.73
2022-08-12T21:35:10.548Z,4.90
2022-08-12T21:37:53.020Z,6.60
2022-08-12T21:40:22.073Z,6.10
2022-08-12T21:43:07.611Z,11.03
2022-08-12T21:45:45.846Z,16.70
2022-08-12T21:48:28.092Z,7.20
2022-08-12T21:50:57.495Z,17.03
2022-08-12T21:53:31.742Z,11.37
2022-08-12T21:56:34.091Z,17.57
2022-08-12T21:59:03.008Z,16.87
2022-08-12T22:01:36.624Z,23.97
2022-08-12T22:04:34.824Z,23.53
2022-08-12T22:07:04.499Z,29.90
2022-08-12T22:09:43.554Z,17.10
2022-08-12T22:12:29.638Z,26.20
2022-08-12T22:14:57.543Z,37.87
2022-08-12T22:17:33.695Z,59.30
2022-08-12T22:20:18.135Z,52.70
2022-08-12T22:22:56.313Z,37.53
2022-08-12T22:25:27.631Z,24.20
2022-08-12T22:28:13.412Z,30.67
2022-08-12T22:30:59.339Z,34.90
2022-08-12T22:33:27.300Z,42.20
2022-08-12T22:35:59.370Z,35.70
2022-08-12T22:38:29.986Z,51.33
2022-08-12T22:41:00.985Z,229.13
2022-08-12T22:44:01.182Z,119.70
2022-08-12T22:46:52.761Z,20.77
2022-08-12T22:49:36.589Z,6.40
2022-08-12T22:52:12.471Z,6.23
2022-08-12T22:54:46.039Z,5.87
2022-08-12T22:57:53.364Z,10.00
2022-08-12T23:00:27.201Z,6.43
2022-08-12T23:03:00.826Z,6.23
2022-08-12T23:05:57.255Z,5.67
2022-08-12T23:08:21.961Z,7.70
2022-08-12T23:10:51.910Z,4.83
2022-08-12T23:13:42.997Z,6.40
2022-08-12T23:16:29.545Z,5.33
2022-08-12T23:19:09.335Z,4.63
2022-08-12T23:22:03.325Z,4.97
2022-08-12T23:24:27.028Z,6.10
2022-08-12T23:27:14.344Z,7.80
2022-08-12T23:29:42.826Z,4.50
2022-08-12T23:32:13.371Z,5.67
2022-08-12T23:35:02.629Z,4.70
2022-08-12T23:37:46.575Z,5.43
2022-08-12T23:40:17.578Z,12.17
2022-08-12T23:42:47.637Z,4.73
2022-08-12T23:45:20.424Z,6.90
2022-08-12T23:47:59.876Z,6.43
2022-08-12T23:50:34.386Z,4.50
2022-08-12T23:53:06.709Z,4.20
2022-08-12T23:55:45.580Z,5.33
2022-08-12T23:58:21.133Z,6.23
